Current Weather

Dr Luis Maria Argana Intl

Dr Luis Maria Argana Intl, Paraguay (SGME)

Report from: Friday, December 2, 2022 6:00 PM -03
Current time: Sunday, December 4, 2022 9:24 AM -03

Nearby weather
Weather history
Weather forecast

Temperature24.0°C (75.2°F)
Dew point21.0°C (69.8°F)
Winds 5 kts (2.6 m/s, 5.8 mph) South-Southeast (150°)
Visibility6.2 mi. (10 km)
Clouds Ceiling: Broken clouds 2,700 ft. (823 m)
Altimeter29.74 in.Hg (1007 mB)
Relative humidity83 %
Density altitude1,591 ft. (485 m)
Flight conditions Marginal Visual Meteorological Conditions
Raw dataSGME 022100Z 15005KT 9999 BKN027 24/21 Q1007
An error has occurred. This application may no longer respond until reloaded. Reload 🗙